createdAt,value
2019-02-10T00:00:01.295Z,53.81
2019-02-10T00:02:28.749Z,53.77
2019-02-10T00:04:56.219Z,53.93
2019-02-10T00:07:23.671Z,54.11
2019-02-10T00:09:51.123Z,53.99
2019-02-10T00:12:18.620Z,54.00
2019-02-10T00:14:46.006Z,53.87
2019-02-10T00:17:13.523Z,53.58
2019-02-10T00:19:40.997Z,53.60
2019-02-10T00:22:08.441Z,53.60
2019-02-10T00:24:35.827Z,53.70
2019-02-10T00:27:03.295Z,53.79
2019-02-10T00:29:30.708Z,53.98
2019-02-10T00:31:58.104Z,54.46
2019-02-10T00:34:25.520Z,54.84
2019-02-10T00:36:52.942Z,55.01
2019-02-10T00:39:20.347Z,55.22
2019-02-10T00:41:47.974Z,55.07
2019-02-10T00:44:16.026Z,54.83
2019-02-10T00:46:43.427Z,54.65
2019-02-10T00:49:11.377Z,54.69
2019-02-10T00:51:39.428Z,54.98
2019-02-10T00:54:06.925Z,54.95
2019-02-10T00:56:34.360Z,54.90
2019-02-10T00:59:01.764Z,54.74
2019-02-10T01:01:29.818Z,54.59
2019-02-10T01:03:57.564Z,54.47
2019-02-10T01:06:24.986Z,54.54
2019-02-10T01:08:52.374Z,54.90
2019-02-10T01:11:19.809Z,55.32
2019-02-10T01:13:47.211Z,55.63
2019-02-10T01:16:14.645Z,55.96
2019-02-10T01:18:42.024Z,56.27
2019-02-10T01:21:09.423Z,56.38
2019-02-10T01:23:36.818Z,56.62
2019-02-10T01:26:04.259Z,56.60
2019-02-10T01:28:31.649Z,56.56
2019-02-10T01:30:59.198Z,56.45
2019-02-10T01:33:26.613Z,56.20
2019-02-10T01:35:54.193Z,56.05
2019-02-10T01:38:21.590Z,56.22
2019-02-10T01:40:49.093Z,56.35
2019-02-10T01:43:17.173Z,56.58
2019-02-10T01:45:44.816Z,56.89
2019-02-10T01:48:12.231Z,57.03
2019-02-10T01:50:39.655Z,57.17
2019-02-10T01:53:07.043Z,57.40
2019-02-10T01:55:34.439Z,57.63
2019-02-10T01:58:01.910Z,57.84
2019-02-10T02:00:29.365Z,57.90
2019-02-10T02:02:56.796Z,58.13
2019-02-10T02:05:24.198Z,58.22
2019-02-10T02:07:51.634Z,58.33
2019-02-10T02:10:19.018Z,58.40
2019-02-10T02:12:46.458Z,58.52
2019-02-10T02:15:13.874Z,58.49
2019-02-10T02:17:41.271Z,58.65
2019-02-10T02:20:08.743Z,58.79
2019-02-10T02:22:36.142Z,58.76
2019-02-10T02:25:03.539Z,58.61
2019-02-10T02:27:31.045Z,58.55
2019-02-10T02:29:58.492Z,58.43
2019-02-10T02:32:25.925Z,58.35
2019-02-10T02:34:53.372Z,58.16
2019-02-10T02:37:20.778Z,58.12
2019-02-10T02:39:48.226Z,57.88
2019-02-10T02:42:15.713Z,57.76
2019-02-10T02:44:43.139Z,57.64
2019-02-10T02:47:10.546Z,57.63
2019-02-10T02:49:37.963Z,57.50
2019-02-10T02:52:05.399Z,57.45
2019-02-10T02:54:33.540Z,57.37
2019-02-10T02:57:01.395Z,57.20
2019-02-10T02:59:28.817Z,57.35
2019-02-10T03:01:56.231Z,57.51
2019-02-10T03:04:23.669Z,57.74
2019-02-10T03:06:51.125Z,57.65
2019-02-10T03:09:18.524Z,57.39
2019-02-10T03:11:45.922Z,57.26
2019-02-10T03:14:13.319Z,57.32
2019-02-10T03:16:40.719Z,57.50
2019-02-10T03:19:08.111Z,57.41
2019-02-10T03:21:35.507Z,57.34
2019-02-10T03:24:03.739Z,57.21
2019-02-10T03:26:31.129Z,57.37
2019-02-10T03:28:58.538Z,57.41
2019-02-10T03:31:25.934Z,57.44
2019-02-10T03:33:53.340Z,57.42
2019-02-10T03:36:20.830Z,57.38
2019-02-10T03:38:48.219Z,57.41
2019-02-10T03:41:15.635Z,57.40
2019-02-10T03:43:43.189Z,57.46
2019-02-10T03:46:10.601Z,57.33
2019-02-10T03:48:37.989Z,57.48
2019-02-10T03:51:05.412Z,57.45
2019-02-10T03:53:32.854Z,57.35
2019-02-10T03:56:00.443Z,56.97
2019-02-10T03:58:27.867Z,56.79
2019-02-10T04:00:55.260Z,55.41
2019-02-10T04:03:22.681Z,54.73
2019-02-10T04:05:50.102Z,54.34
2019-02-10T04:08:17.487Z,53.94
2019-02-10T04:10:44.873Z,53.36
2019-02-10T04:13:12.468Z,52.82
2019-02-10T04:15:39.886Z,52.33
2019-02-10T04:18:07.277Z,52.11
2019-02-10T04:20:34.849Z,51.69
2019-02-10T04:23:02.236Z,51.67
2019-02-10T04:25:29.661Z,51.30
2019-02-10T04:27:57.057Z,51.15
2019-02-10T04:30:24.442Z,50.76
2019-02-10T04:32:51.843Z,50.29
2019-02-10T04:35:19.286Z,49.90
2019-02-10T04:37:46.858Z,49.83
2019-02-10T04:40:14.382Z,49.99
2019-02-10T04:42:41.963Z,50.39
2019-02-10T04:45:09.390Z,50.37
2019-02-10T04:47:36.778Z,50.59
2019-02-10T04:50:04.188Z,50.75
2019-02-10T04:52:31.595Z,50.64
2019-02-10T04:54:59.002Z,50.67
2019-02-10T04:57:26.419Z,50.62
2019-02-10T04:59:53.828Z,50.56
2019-02-10T05:02:21.274Z,50.51
2019-02-10T05:04:48.863Z,50.52
2019-02-10T05:07:16.428Z,50.60
2019-02-10T05:09:43.837Z,50.45
2019-02-10T05:12:11.458Z,50.53
2019-02-10T05:14:38.858Z,50.13
2019-02-10T05:17:07.009Z,49.88
2019-02-10T05:19:34.416Z,49.67
2019-02-10T05:22:01.825Z,49.30
2019-02-10T05:24:29.251Z,49.10
2019-02-10T05:26:56.655Z,48.98
2019-02-10T05:29:24.061Z,49.09
2019-02-10T05:31:51.520Z,49.22
2019-02-10T05:34:18.922Z,49.18
2019-02-10T05:36:46.374Z,49.25
2019-02-10T05:39:13.794Z,49.35
2019-02-10T05:41:41.252Z,49.29
2019-02-10T05:44:08.647Z,49.37
2019-02-10T05:46:36.287Z,49.54
2019-02-10T05:49:03.728Z,49.59
2019-02-10T05:51:31.193Z,49.81
2019-02-10T05:53:58.640Z,49.88
2019-02-10T05:56:26.129Z,50.21
2019-02-10T05:58:53.526Z,50.51
2019-02-10T06:01:32.681Z,50.77
2019-02-10T06:04:00.086Z,50.98
2019-02-10T06:06:27.481Z,51.16
2019-02-10T06:08:54.877Z,51.44
2019-02-10T06:11:22.278Z,51.74
2019-02-10T06:13:49.767Z,51.74
2019-02-10T06:16:17.162Z,51.66
2019-02-10T06:18:44.552Z,51.62
2019-02-10T06:21:11.956Z,51.38
2019-02-10T06:23:39.809Z,51.05
2019-02-10T06:26:07.193Z,51.06
2019-02-10T06:28:34.582Z,50.93
2019-02-10T06:31:01.977Z,50.77
2019-02-10T06:33:29.374Z,50.84
2019-02-10T06:35:56.839Z,50.81
2019-02-10T06:38:24.275Z,50.63
2019-02-10T06:40:51.695Z,50.59
2019-02-10T06:43:19.866Z,50.48
2019-02-10T06:45:47.434Z,50.61
2019-02-10T06:48:14.863Z,50.52
2019-02-10T06:50:42.253Z,50.41
2019-02-10T06:53:09.701Z,50.08
2019-02-10T06:55:37.101Z,50.11
2019-02-10T06:58:04.502Z,50.07
2019-02-10T07:00:32.710Z,49.53
2019-02-10T07:03:11.762Z,49.27
2019-02-10T07:05:39.273Z,48.97
2019-02-10T07:08:07.042Z,48.75
2019-02-10T07:10:34.448Z,48.51
2019-02-10T07:13:01.828Z,48.35
2019-02-10T07:18:44.974Z,47.45
2019-02-10T07:21:12.452Z,47.12
2019-02-10T07:26:52.875Z,47.43
2019-02-10T07:29:27.852Z,47.99
2019-02-10T07:31:55.272Z,48.43
2019-02-10T07:34:27.178Z,48.77
2019-02-10T07:37:06.319Z,49.02
2019-02-10T07:39:56.522Z,49.27
2019-02-10T07:42:48.850Z,49.02
2019-02-10T07:45:38.494Z,48.83
2019-02-10T07:48:20.949Z,48.82
2019-02-10T07:50:48.372Z,48.13
2019-02-10T07:53:29.955Z,48.38
2019-02-10T07:56:13.067Z,48.47
2019-02-10T07:58:42.546Z,48.66
2019-02-10T08:01:21.649Z,48.78
2019-02-10T08:04:12.284Z,48.32
2019-02-10T08:06:44.338Z,47.26
2019-02-10T08:09:17.003Z,46.77
2019-02-10T08:11:52.439Z,45.94
2019-02-10T08:14:40.303Z,45.50
2019-02-10T08:17:14.232Z,44.96
2019-02-10T08:22:53.881Z,45.36
2019-02-10T08:25:28.059Z,45.52
2019-02-10T08:30:53.943Z,44.88
2019-02-10T13:56:37.518Z,59.98
2019-02-10T13:59:04.951Z,59.29
2019-02-10T14:01:32.355Z,59.35
2019-02-10T14:03:59.772Z,59.75
2019-02-10T14:06:27.183Z,59.91
2019-02-10T14:08:54.586Z,60.39
2019-02-10T14:11:22.014Z,60.95
2019-02-10T14:13:49.454Z,61.88
2019-02-10T14:16:18.017Z,62.17
2019-02-10T14:18:44.256Z,62.15
2019-02-10T14:21:11.665Z,62.88
2019-02-10T14:23:39.054Z,63.05
2019-02-10T14:26:06.671Z,62.64
2019-02-10T14:28:34.095Z,62.82
2019-02-10T14:31:02.257Z,62.82
2019-02-10T14:33:29.665Z,62.99
2019-02-10T14:35:57.079Z,63.80
2019-02-10T14:38:24.821Z,64.32
2019-02-10T14:40:51.964Z,65.31
2019-02-10T14:43:19.376Z,66.79
2019-02-10T14:45:46.770Z,67.92
2019-02-10T14:48:14.195Z,69.01
2019-02-10T14:50:41.615Z,70.62
2019-02-10T14:53:09.003Z,71.38
2019-02-10T14:55:36.450Z,72.17
2019-02-10T14:58:03.918Z,72.49
2019-02-10T15:00:31.499Z,72.55
2019-02-10T15:02:58.959Z,72.99
2019-02-10T15:05:26.374Z,73.53
2019-02-10T15:07:53.771Z,73.73
2019-02-10T15:10:21.847Z,74.05
2019-02-10T15:12:49.257Z,74.68
2019-02-10T15:15:16.714Z,75.58
2019-02-10T15:17:44.152Z,76.32
2019-02-10T15:20:12.119Z,75.05
2019-02-10T15:22:39.555Z,73.56
2019-02-10T15:25:11.741Z,71.02
2019-02-10T15:27:39.162Z,49.29
2019-02-10T15:30:07.570Z,55.62
2019-02-10T15:32:34.516Z,64.49
2019-02-10T15:35:01.534Z,67.96
2019-02-10T15:37:28.473Z,69.60
2019-02-10T15:39:55.436Z,70.60
2019-02-10T15:42:22.379Z,70.81
2019-02-10T15:44:49.327Z,71.44
2019-02-10T15:47:16.715Z,70.85
2019-02-10T15:49:44.139Z,68.83
2019-02-10T15:52:11.566Z,68.68
2019-02-10T15:54:39.039Z,70.10
2019-02-10T15:57:06.478Z,70.54
2019-02-10T15:59:33.924Z,71.33
2019-02-10T16:02:01.315Z,72.40
2019-02-10T16:04:28.736Z,72.74
2019-02-10T16:06:56.179Z,72.53
2019-02-10T16:09:23.584Z,71.54
2019-02-10T16:11:50.984Z,71.69
2019-02-10T16:14:18.461Z,70.09
2019-02-10T16:16:45.847Z,68.81
2019-02-10T16:19:13.254Z,69.06
2019-02-10T16:21:40.652Z,68.42
2019-02-10T16:24:08.064Z,67.91
2019-02-10T16:26:35.458Z,67.57
2019-02-10T16:29:03.008Z,67.33
2019-02-10T16:31:31.448Z,66.99
2019-02-10T16:33:57.835Z,67.03
2019-02-10T16:36:25.261Z,67.06
2019-02-10T16:38:52.880Z,67.86
2019-02-10T16:41:20.392Z,68.06
2019-02-10T16:43:47.956Z,68.28
2019-02-10T16:46:15.336Z,68.92
2019-02-10T16:48:42.757Z,68.58
2019-02-10T16:51:10.151Z,68.08
2019-02-10T16:53:37.911Z,67.96
2019-02-10T16:56:05.333Z,66.60
2019-02-10T16:58:32.760Z,66.95
2019-02-10T17:01:00.167Z,68.01
2019-02-10T17:03:28.098Z,67.78
2019-02-10T17:05:55.108Z,67.75
2019-02-10T17:08:22.062Z,66.20
2019-02-10T17:10:48.990Z,63.12
2019-02-10T17:13:15.958Z,61.63
2019-02-10T17:15:42.921Z,59.03
2019-02-10T17:18:09.922Z,57.73
2019-02-10T17:20:36.905Z,58.34
2019-02-10T17:23:03.830Z,58.62
2019-02-10T17:25:30.803Z,58.90
2019-02-10T17:27:57.796Z,59.10
2019-02-10T17:30:24.843Z,57.62
2019-02-10T17:32:51.773Z,57.72
2019-02-10T17:35:18.738Z,58.13
2019-02-10T17:37:45.876Z,55.38
2019-02-10T17:40:13.560Z,55.23
2019-02-10T17:42:40.509Z,56.33
2019-02-10T17:45:07.493Z,56.43
2019-02-10T17:47:34.913Z,56.71
2019-02-10T17:50:02.359Z,56.73
2019-02-10T17:52:31.935Z,57.58
2019-02-10T17:54:56.329Z,57.20
2019-02-10T17:57:23.297Z,56.49
2019-02-10T17:59:50.702Z,56.49
2019-02-10T18:02:17.803Z,56.25
2019-02-10T18:04:44.753Z,56.62
2019-02-10T18:07:11.706Z,56.26
2019-02-10T18:09:38.688Z,56.66
2019-02-10T18:12:05.642Z,57.50
2019-02-10T18:14:32.581Z,57.65
2019-02-10T18:17:01.950Z,58.03
2019-02-10T18:19:35.937Z,58.56
2019-02-10T18:22:06.913Z,58.58
2019-02-10T18:24:37.650Z,59.27
2019-02-10T18:27:06.593Z,59.81
2019-02-10T18:29:36.567Z,60.17
2019-02-10T18:32:04.464Z,60.69
2019-02-10T18:34:34.644Z,61.24
2019-02-10T18:37:08.628Z,61.78
2019-02-10T18:39:36.270Z,60.53
2019-02-10T18:42:08.537Z,60.62
2019-02-10T18:44:36.724Z,61.05
2019-02-10T18:47:05.581Z,60.57
2019-02-10T18:49:35.565Z,60.23
2019-02-10T18:52:05.063Z,60.17
2019-02-10T18:57:34.614Z,58.85
2019-02-10T19:00:07.507Z,59.36
2019-02-10T19:02:40.030Z,59.17
2019-02-10T19:05:24.799Z,59.35
2019-02-10T19:08:06.726Z,58.59
2019-02-10T19:10:36.285Z,57.90
2019-02-10T19:13:05.098Z,58.02
2019-02-10T19:15:33.747Z,58.49
2019-02-10T19:18:06.345Z,58.66
2019-02-10T19:20:33.286Z,58.65
2019-02-10T19:23:00.243Z,58.45
2019-02-10T19:25:38.485Z,58.48
2019-02-10T19:31:01.530Z,57.34
2019-02-10T19:33:28.952Z,57.43
2019-02-10T19:36:00.706Z,58.08
2019-02-10T19:38:29.791Z,58.10
2019-02-10T19:41:02.606Z,58.56
2019-02-10T19:43:33.443Z,58.16
2019-02-10T19:46:02.679Z,58.21
2019-02-10T19:48:40.215Z,58.15
2019-02-10T19:51:14.140Z,58.20
2019-02-10T19:53:51.549Z,57.93
2019-02-10T19:56:21.339Z,58.04
2019-02-10T19:58:52.186Z,58.21
2019-02-10T20:01:24.037Z,58.83
2019-02-10T20:03:58.724Z,58.61
2019-02-10T20:06:27.517Z,58.57
2019-02-10T20:11:50.435Z,57.89
2019-02-10T20:14:25.852Z,57.95
2019-02-10T20:17:08.033Z,58.15
2019-02-10T20:19:35.485Z,58.42
2019-02-10T20:22:05.707Z,58.53
2019-02-10T20:24:37.627Z,58.96
2019-02-10T20:27:09.510Z,58.99
2019-02-10T20:29:37.347Z,59.30
2019-02-10T20:32:07.272Z,59.18
2019-02-10T20:37:42.814Z,59.91
2019-02-10T20:40:15.981Z,59.97
2019-02-10T20:42:43.396Z,59.97
2019-02-10T20:45:11.159Z,60.49
2019-02-10T20:47:44.129Z,60.61
2019-02-10T20:51:59.199Z,60.44
2019-02-10T20:54:30.613Z,60.45
2019-02-10T20:56:58.009Z,60.07
2019-02-10T20:59:41.120Z,60.29
2019-02-10T21:02:09.490Z,59.21
2019-02-10T21:04:40.808Z,58.78
2019-02-10T21:07:10.536Z,58.52
2019-02-10T21:09:43.634Z,58.42
2019-02-10T21:12:23.053Z,58.19
2019-02-10T21:14:52.266Z,58.69
2019-02-10T21:20:23.624Z,60.13
2019-02-10T21:22:56.004Z,60.86
2019-02-10T21:25:28.463Z,61.66
2019-02-10T21:28:10.767Z,62.22
2019-02-10T21:30:38.592Z,62.20
2019-02-10T21:33:11.472Z,62.27
2019-02-10T21:35:42.067Z,62.46
2019-02-10T21:38:15.082Z,62.75
2019-02-10T21:40:48.170Z,62.55
2019-02-10T21:43:21.111Z,61.93
2019-02-10T21:45:48.511Z,61.58
2019-02-10T21:48:15.974Z,61.52
2019-02-10T21:50:43.388Z,61.56
2019-02-10T21:53:10.922Z,62.32
2019-02-10T21:55:38.325Z,62.46
2019-02-10T21:58:06.085Z,62.62
2019-02-10T22:00:33.470Z,63.57
2019-02-10T22:03:00.918Z,64.77
2019-02-10T22:05:28.365Z,65.72
2019-02-10T22:07:55.792Z,66.72
2019-02-10T22:10:23.199Z,68.26
2019-02-10T22:12:50.592Z,68.67
2019-02-10T22:15:18.053Z,68.62
2019-02-10T22:17:45.516Z,68.90
2019-02-10T22:20:12.965Z,69.04
2019-02-10T22:22:40.359Z,69.33
2019-02-10T22:25:07.783Z,69.22
2019-02-10T22:27:35.236Z,68.89
2019-02-10T22:30:02.640Z,68.74
2019-02-10T22:32:30.024Z,68.43
2019-02-10T22:34:57.411Z,68.07
2019-02-10T22:37:24.975Z,67.78
2019-02-10T22:39:52.439Z,67.92
2019-02-10T22:42:19.885Z,68.03
2019-02-10T22:44:47.342Z,67.91
2019-02-10T22:47:14.801Z,67.15
2019-02-10T22:49:42.180Z,66.19
2019-02-10T22:52:09.576Z,65.98
2019-02-10T22:54:36.993Z,65.75
2019-02-10T22:57:04.413Z,65.18
2019-02-10T22:59:31.885Z,64.58
2019-02-10T23:01:59.339Z,63.72
2019-02-10T23:04:26.718Z,63.32
2019-02-10T23:06:54.120Z,62.73
2019-02-10T23:09:21.541Z,62.51
2019-02-10T23:11:48.956Z,61.91
2019-02-10T23:14:16.436Z,61.64
2019-02-10T23:16:45.562Z,61.38
2019-02-10T23:19:13.008Z,60.64
2019-02-10T23:21:40.431Z,60.58
2019-02-10T23:24:07.840Z,60.63
2019-02-10T23:26:35.254Z,60.40
2019-02-10T23:29:02.700Z,60.71
2019-02-10T23:31:30.097Z,60.64
2019-02-10T23:33:57.518Z,60.64
2019-02-10T23:36:24.934Z,60.85
2019-02-10T23:38:52.440Z,61.30
2019-02-10T23:41:19.894Z,61.62
2019-02-10T23:43:47.351Z,61.82
2019-02-10T23:46:14.750Z,61.48
2019-02-10T23:48:42.178Z,61.27
2019-02-10T23:51:09.580Z,61.03
2019-02-10T23:53:36.972Z,61.22
2019-02-10T23:56:04.419Z,61.28
2019-02-10T23:58:31.881Z,60.92
